sensor_id;sensor_type;location;lat;lon;timestamp;temperature;humidity
69031;DHT22;56083;48.774;8.942;2023-03-24T00:00:05;12.00;99.90
69031;DHT22;56083;48.774;8.942;2023-03-24T00:02:33;12.00;99.90
69031;DHT22;56083;48.774;8.942;2023-03-24T00:05:05;12.00;99.90
69031;DHT22;56083;48.774;8.942;2023-03-24T00:07:31;12.10;99.90
69031;DHT22;56083;48.774;8.942;2023-03-24T00:09:58;12.10;99.90
69031;DHT22;56083;48.774;8.942;2023-03-24T00:12:25;12.10;99.90
69031;DHT22;56083;48.774;8.942;2023-03-24T00:14:51;12.10;99.90
69031;DHT22;56083;48.774;8.942;2023-03-24T00:17:19;12.20;99.90
69031;DHT22;56083;48.774;8.942;2023-03-24T00:19:50;12.20;99.90
69031;DHT22;56083;48.774;8.942;2023-03-24T00:22:16;12.20;99.90
69031;DHT22;56083;48.774;8.942;2023-03-24T00:24:41;12.20;99.90
69031;DHT22;56083;48.774;8.942;2023-03-24T00:27:11;12.20;99.90
69031;DHT22;56083;48.774;8.942;2023-03-24T00:29:41;12.30;99.90
69031;DHT22;56083;48.774;8.942;2023-03-24T00:32:06;12.40;99.90
69031;DHT22;56083;48.774;8.942;2023-03-24T00:34:32;12.40;99.90
69031;DHT22;56083;48.774;8.942;2023-03-24T00:37:06;12.50;99.90
69031;DHT22;56083;48.774;8.942;2023-03-24T00:39:31;12.50;99.90
69031;DHT22;56083;48.774;8.942;2023-03-24T00:41:57;12.60;99.90
69031;DHT22;56083;48.774;8.942;2023-03-24T00:44:24;12.60;99.90
69031;DHT22;56083;48.774;8.942;2023-03-24T00:46:50;12.60;99.90
69031;DHT22;56083;48.774;8.942;2023-03-24T00:49:24;12.60;99.90
69031;DHT22;56083;48.774;8.942;2023-03-24T00:52:26;12.70;99.90
69031;DHT22;56083;48.774;8.942;2023-03-24T00:54:59;12.70;99.90
69031;DHT22;56083;48.774;8.942;2023-03-24T00:57:27;12.70;99.90
69031;DHT22;56083;48.774;8.942;2023-03-24T00:59:55;12.70;99.90
69031;DHT22;56083;48.774;8.942;2023-03-24T01:02:25;12.80;99.90
69031;DHT22;56083;48.774;8.942;2023-03-24T01:04:56;12.80;99.90
69031;DHT22;56083;48.774;8.942;2023-03-24T01:07:27;12.70;99.90
69031;DHT22;56083;48.774;8.942;2023-03-24T01:09:55;12.70;99.90
69031;DHT22;56083;48.774;8.942;2023-03-24T01:12:30;12.60;99.90
69031;DHT22;56083;48.774;8.942;2023-03-24T01:14:57;12.60;99.90
69031;DHT22;56083;48.774;8.942;2023-03-24T01:17:23;12.60;99.90
69031;DHT22;56083;48.774;8.942;2023-03-24T01:19:51;12.60;99.90
69031;DHT22;56083;48.774;8.942;2023-03-24T01:22:17;12.60;99.90
69031;DHT22;56083;48.774;8.942;2023-03-24T01:24:48;12.50;99.90
69031;DHT22;56083;48.774;8.942;2023-03-24T01:27:14;12.50;99.90
69031;DHT22;56083;48.774;8.942;2023-03-24T01:29:40;12.60;99.90
69031;DHT22;56083;48.774;8.942;2023-03-24T01:32:07;12.60;99.90
69031;DHT22;56083;48.774;8.942;2023-03-24T01:34:33;12.60;99.90
69031;DHT22;56083;48.774;8.942;2023-03-24T01:36:59;12.40;99.90
69031;DHT22;56083;48.774;8.942;2023-03-24T01:39:25;12.40;99.90
69031;DHT22;56083;48.774;8.942;2023-03-24T01:41:51;12.30;99.90
69031;DHT22;56083;48.774;8.942;2023-03-24T01:44:35;12.20;99.90
69031;DHT22;56083;48.774;8.942;2023-03-24T01:47:02;12.20;99.90
69031;DHT22;56083;48.774;8.942;2023-03-24T01:49:38;12.20;99.90
69031;DHT22;56083;48.774;8.942;2023-03-24T01:52:08;12.20;99.90
69031;DHT22;56083;48.774;8.942;2023-03-24T01:54:44;12.10;99.90
69031;DHT22;56083;48.774;8.942;2023-03-24T01:57:16;12.00;99.90
69031;DHT22;56083;48.774;8.942;2023-03-24T01:59:47;12.10;99.90
69031;DHT22;56083;48.774;8.942;2023-03-24T02:02:13;12.10;99.90
69031;DHT22;56083;48.774;8.942;2023-03-24T02:04:43;12.10;99.90
69031;DHT22;56083;48.774;8.942;2023-03-24T02:07:33;12.20;99.90
69031;DHT22;56083;48.774;8.942;2023-03-24T02:10:03;12.20;99.90
69031;DHT22;56083;48.774;8.942;2023-03-24T02:12:30;12.30;99.90
69031;DHT22;56083;48.774;8.942;2023-03-24T02:14:56;12.30;99.90
69031;DHT22;56083;48.774;8.942;2023-03-24T02:20:38;12.30;99.90
69031;DHT22;56083;48.774;8.942;2023-03-24T02:37:21;12.60;99.90
69031;DHT22;56083;48.774;8.942;2023-03-24T02:40:57;12.60;99.90
69031;DHT22;56083;48.774;8.942;2023-03-24T02:46:35;12.70;99.90
69031;DHT22;56083;48.774;8.942;2023-03-24T02:51:56;12.60;99.90
69031;DHT22;56083;48.774;8.942;2023-03-24T02:57:26;12.60;99.90
69031;DHT22;56083;48.774;8.942;2023-03-24T03:00:34;12.60;99.90
69031;DHT22;56083;48.774;8.942;2023-03-24T03:03:02;12.50;99.90
69031;DHT22;56083;48.774;8.942;2023-03-24T03:05:33;12.40;99.90
69031;DHT22;56083;48.774;8.942;2023-03-24T03:08:01;12.30;99.90
69031;DHT22;56083;48.774;8.942;2023-03-24T03:10:34;12.30;99.90
69031;DHT22;56083;48.774;8.942;2023-03-24T03:13:07;12.40;99.90
69031;DHT22;56083;48.774;8.942;2023-03-24T03:15:38;12.40;99.90
69031;DHT22;56083;48.774;8.942;2023-03-24T03:18:16;12.40;99.90
69031;DHT22;56083;48.774;8.942;2023-03-24T03:20:46;12.40;99.90
69031;DHT22;56083;48.774;8.942;2023-03-24T03:23:17;12.40;99.90
69031;DHT22;56083;48.774;8.942;2023-03-24T03:25:47;12.50;99.90
69031;DHT22;56083;48.774;8.942;2023-03-24T03:28:19;12.40;99.90
69031;DHT22;56083;48.774;8.942;2023-03-24T03:30:52;12.40;99.90
69031;DHT22;56083;48.774;8.942;2023-03-24T03:33:21;12.50;99.90
69031;DHT22;56083;48.774;8.942;2023-03-24T03:38:34;12.60;99.90
69031;DHT22;56083;48.774;8.942;2023-03-24T03:41:04;12.60;99.90
69031;DHT22;56083;48.774;8.942;2023-03-24T03:43:31;12.60;99.90
69031;DHT22;56083;48.774;8.942;2023-03-24T03:45:58;12.60;99.90
69031;DHT22;56083;48.774;8.942;2023-03-24T03:48:26;12.70;99.90
69031;DHT22;56083;48.774;8.942;2023-03-24T03:50:53;12.70;99.90
69031;DHT22;56083;48.774;8.942;2023-03-24T03:53:23;12.80;99.90
69031;DHT22;56083;48.774;8.942;2023-03-24T03:55:52;12.80;99.90
69031;DHT22;56083;48.774;8.942;2023-03-24T03:58:18;12.80;99.90
69031;DHT22;56083;48.774;8.942;2023-03-24T04:00:44;12.80;99.90
69031;DHT22;56083;48.774;8.942;2023-03-24T04:08:37;12.90;99.90
69031;DHT22;56083;48.774;8.942;2023-03-24T04:17:18;12.80;99.90
69031;DHT22;56083;48.774;8.942;2023-03-24T04:19:51;12.80;99.90
69031;DHT22;56083;48.774;8.942;2023-03-24T04:25:00;12.80;99.90
69031;DHT22;56083;48.774;8.942;2023-03-24T04:30:45;12.80;99.90
69031;DHT22;56083;48.774;8.942;2023-03-24T04:35:50;12.90;99.90
69031;DHT22;56083;48.774;8.942;2023-03-24T04:38:24;12.90;99.90
69031;DHT22;56083;48.774;8.942;2023-03-24T04:40:52;12.90;99.90
69031;DHT22;56083;48.774;8.942;2023-03-24T04:43:22;12.90;99.90
69031;DHT22;56083;48.774;8.942;2023-03-24T04:45:53;12.90;99.90
69031;DHT22;56083;48.774;8.942;2023-03-24T04:48:22;12.90;99.90
69031;DHT22;56083;48.774;8.942;2023-03-24T04:50:57;13.00;99.90
69031;DHT22;56083;48.774;8.942;2023-03-24T04:53:23;13.00;99.90
69031;DHT22;56083;48.774;8.942;2023-03-24T04:58:19;13.10;99.90
69031;DHT22;56083;48.774;8.942;2023-03-24T05:00:46;13.10;99.90
69031;DHT22;56083;48.774;8.942;2023-03-24T05:03:12;13.10;99.90
69031;DHT22;56083;48.774;8.942;2023-03-24T05:05:46;13.00;99.90
69031;DHT22;56083;48.774;8.942;2023-03-24T05:08:13;13.00;99.90
69031;DHT22;56083;48.774;8.942;2023-03-24T05:10:39;12.90;99.90
69031;DHT22;56083;48.774;8.942;2023-03-24T05:13:06;12.80;99.90
69031;DHT22;56083;48.774;8.942;2023-03-24T05:15:32;12.70;99.90
69031;DHT22;56083;48.774;8.942;2023-03-24T05:17:58;12.50;99.90
69031;DHT22;56083;48.774;8.942;2023-03-24T05:20:25;12.30;99.90
69031;DHT22;56083;48.774;8.942;2023-03-24T05:22:51;12.10;99.90
69031;DHT22;56083;48.774;8.942;2023-03-24T05:25:18;11.90;99.90
69031;DHT22;56083;48.774;8.942;2023-03-24T05:27:43;11.80;99.90
69031;DHT22;56083;48.774;8.942;2023-03-24T05:30:10;11.70;99.90
69031;DHT22;56083;48.774;8.942;2023-03-24T05:32:36;11.60;99.90
69031;DHT22;56083;48.774;8.942;2023-03-24T05:35:02;11.50;99.90
69031;DHT22;56083;48.774;8.942;2023-03-24T05:37:28;11.30;99.90
69031;DHT22;56083;48.774;8.942;2023-03-24T05:39:54;11.20;99.90
69031;DHT22;56083;48.774;8.942;2023-03-24T05:42:20;11.20;99.90
69031;DHT22;56083;48.774;8.942;2023-03-24T05:44:45;11.10;99.90
69031;DHT22;56083;48.774;8.942;2023-03-24T05:47:12;11.10;99.90
69031;DHT22;56083;48.774;8.942;2023-03-24T05:49:41;11.00;99.90
69031;DHT22;56083;48.774;8.942;2023-03-24T05:52:07;11.00;99.90
69031;DHT22;56083;48.774;8.942;2023-03-24T05:54:33;10.90;99.90
69031;DHT22;56083;48.774;8.942;2023-03-24T05:56:59;10.90;99.90
69031;DHT22;56083;48.774;8.942;2023-03-24T05:59:25;10.90;99.90
69031;DHT22;56083;48.774;8.942;2023-03-24T06:01:50;11.00;99.90
69031;DHT22;56083;48.774;8.942;2023-03-24T06:04:18;11.00;99.90
69031;DHT22;56083;48.774;8.942;2023-03-24T06:06:45;11.00;99.90
69031;DHT22;56083;48.774;8.942;2023-03-24T06:09:11;11.10;99.90
69031;DHT22;56083;48.774;8.942;2023-03-24T06:11:39;11.10;99.90
69031;DHT22;56083;48.774;8.942;2023-03-24T06:14:04;11.10;99.90
69031;DHT22;56083;48.774;8.942;2023-03-24T06:16:31;11.00;99.90
69031;DHT22;56083;48.774;8.942;2023-03-24T06:18:58;11.00;99.90
69031;DHT22;56083;48.774;8.942;2023-03-24T06:21:25;11.00;99.90
69031;DHT22;56083;48.774;8.942;2023-03-24T06:23:55;11.00;99.90
69031;DHT22;56083;48.774;8.942;2023-03-24T06:26:21;11.00;99.90
69031;DHT22;56083;48.774;8.942;2023-03-24T06:28:47;11.10;99.90
69031;DHT22;56083;48.774;8.942;2023-03-24T06:31:17;11.10;99.90
69031;DHT22;56083;48.774;8.942;2023-03-24T06:33:45;11.20;99.90
69031;DHT22;56083;48.774;8.942;2023-03-24T06:36:11;11.30;99.90
69031;DHT22;56083;48.774;8.942;2023-03-24T06:38:38;11.40;99.90
69031;DHT22;56083;48.774;8.942;2023-03-24T06:41:04;11.50;99.90
69031;DHT22;56083;48.774;8.942;2023-03-24T06:43:30;11.60;99.90
69031;DHT22;56083;48.774;8.942;2023-03-24T06:45:56;11.60;99.90
69031;DHT22;56083;48.774;8.942;2023-03-24T06:48:22;11.70;99.90
69031;DHT22;56083;48.774;8.942;2023-03-24T06:50:48;11.70;99.90
69031;DHT22;56083;48.774;8.942;2023-03-24T06:53:13;11.70;99.90
69031;DHT22;56083;48.774;8.942;2023-03-24T06:55:39;11.70;99.90
69031;DHT22;56083;48.774;8.942;2023-03-24T06:58:05;11.70;99.90
69031;DHT22;56083;48.774;8.942;2023-03-24T07:00:31;11.60;99.90
69031;DHT22;56083;48.774;8.942;2023-03-24T07:02:56;11.60;99.90
69031;DHT22;56083;48.774;8.942;2023-03-24T07:05:22;11.50;99.90
69031;DHT22;56083;48.774;8.942;2023-03-24T07:07:48;11.50;99.90
69031;DHT22;56083;48.774;8.942;2023-03-24T07:10:16;11.50;99.90
69031;DHT22;56083;48.774;8.942;2023-03-24T07:12:44;11.40;99.90
69031;DHT22;56083;48.774;8.942;2023-03-24T07:15:10;11.40;99.90
69031;DHT22;56083;48.774;8.942;2023-03-24T07:17:36;11.40;99.90
69031;DHT22;56083;48.774;8.942;2023-03-24T07:20:02;11.40;99.90
69031;DHT22;56083;48.774;8.942;2023-03-24T07:22:32;11.30;99.90
69031;DHT22;56083;48.774;8.942;2023-03-24T07:24:59;11.30;99.90
69031;DHT22;56083;48.774;8.942;2023-03-24T07:27:31;11.30;99.90
69031;DHT22;56083;48.774;8.942;2023-03-24T07:29:58;11.30;99.90
69031;DHT22;56083;48.774;8.942;2023-03-24T07:32:24;11.20;99.90
69031;DHT22;56083;48.774;8.942;2023-03-24T07:34:50;11.20;99.90
69031;DHT22;56083;48.774;8.942;2023-03-24T07:37:17;11.30;99.90
69031;DHT22;56083;48.774;8.942;2023-03-24T07:39:43;11.20;99.90
69031;DHT22;56083;48.774;8.942;2023-03-24T07:42:08;11.20;99.90
69031;DHT22;56083;48.774;8.942;2023-03-24T07:44:34;11.20;99.90
69031;DHT22;56083;48.774;8.942;2023-03-24T07:46:59;11.20;99.90
69031;DHT22;56083;48.774;8.942;2023-03-24T07:49:25;11.20;99.90
69031;DHT22;56083;48.774;8.942;2023-03-24T07:51:51;11.20;99.90
69031;DHT22;56083;48.774;8.942;2023-03-24T07:54:17;11.20;99.90
69031;DHT22;56083;48.774;8.942;2023-03-24T07:56:43;11.20;99.90
69031;DHT22;56083;48.774;8.942;2023-03-24T07:59:08;11.20;99.90
69031;DHT22;56083;48.774;8.942;2023-03-24T08:01:35;11.30;99.90
69031;DHT22;56083;48.774;8.942;2023-03-24T08:04:02;11.30;99.90
69031;DHT22;56083;48.774;8.942;2023-03-24T08:06:29;11.30;99.90
69031;DHT22;56083;48.774;8.942;2023-03-24T08:08:54;11.30;99.90
69031;DHT22;56083;48.774;8.942;2023-03-24T08:11:20;11.30;99.90
69031;DHT22;56083;48.774;8.942;2023-03-24T08:13:46;11.30;99.90
69031;DHT22;56083;48.774;8.942;2023-03-24T08:16:12;11.30;99.90
69031;DHT22;56083;48.774;8.942;2023-03-24T08:18:38;11.40;99.90
69031;DHT22;56083;48.774;8.942;2023-03-24T08:21:04;11.40;99.90
69031;DHT22;56083;48.774;8.942;2023-03-24T08:23:30;11.50;99.90
69031;DHT22;56083;48.774;8.942;2023-03-24T08:25:56;11.50;99.90
69031;DHT22;56083;48.774;8.942;2023-03-24T08:28:22;11.60;99.90
69031;DHT22;56083;48.774;8.942;2023-03-24T08:30:47;11.60;99.90
69031;DHT22;56083;48.774;8.942;2023-03-24T08:33:15;11.60;99.90
69031;DHT22;56083;48.774;8.942;2023-03-24T08:35:41;11.60;99.90
69031;DHT22;56083;48.774;8.942;2023-03-24T08:38:10;11.70;99.90
69031;DHT22;56083;48.774;8.942;2023-03-24T08:40:40;11.70;99.90
69031;DHT22;56083;48.774;8.942;2023-03-24T08:43:08;11.80;99.90
69031;DHT22;56083;48.774;8.942;2023-03-24T08:45:34;11.90;99.90
69031;DHT22;56083;48.774;8.942;2023-03-24T08:48:01;11.90;99.90
69031;DHT22;56083;48.774;8.942;2023-03-24T08:50:31;12.00;99.90
69031;DHT22;56083;48.774;8.942;2023-03-24T08:52:58;12.10;99.90
69031;DHT22;56083;48.774;8.942;2023-03-24T08:55:24;12.20;99.90
69031;DHT22;56083;48.774;8.942;2023-03-24T08:57:50;12.30;99.90
69031;DHT22;56083;48.774;8.942;2023-03-24T09:00:18;12.30;99.90
69031;DHT22;56083;48.774;8.942;2023-03-24T09:02:46;12.30;99.90
69031;DHT22;56083;48.774;8.942;2023-03-24T09:05:13;12.30;99.90
69031;DHT22;56083;48.774;8.942;2023-03-24T09:07:40;12.30;99.90
69031;DHT22;56083;48.774;8.942;2023-03-24T09:10:07;12.40;99.90
69031;DHT22;56083;48.774;8.942;2023-03-24T09:12:34;12.40;99.90
69031;DHT22;56083;48.774;8.942;2023-03-24T09:15:00;12.50;99.90
69031;DHT22;56083;48.774;8.942;2023-03-24T09:17:26;12.60;99.90
69031;DHT22;56083;48.774;8.942;2023-03-24T09:19:52;12.50;99.90
69031;DHT22;56083;48.774;8.942;2023-03-24T09:22:18;12.60;99.90
69031;DHT22;56083;48.774;8.942;2023-03-24T09:24:43;12.60;99.90
69031;DHT22;56083;48.774;8.942;2023-03-24T09:27:09;12.50;99.90
69031;DHT22;56083;48.774;8.942;2023-03-24T09:29:35;12.40;99.90
69031;DHT22;56083;48.774;8.942;2023-03-24T09:32:00;12.50;99.90
69031;DHT22;56083;48.774;8.942;2023-03-24T09:34:26;12.60;99.90
69031;DHT22;56083;48.774;8.942;2023-03-24T09:36:52;12.80;99.90
69031;DHT22;56083;48.774;8.942;2023-03-24T09:39:18;12.90;99.90
69031;DHT22;56083;48.774;8.942;2023-03-24T09:41:44;13.10;99.90
69031;DHT22;56083;48.774;8.942;2023-03-24T09:44:24;13.40;99.90
69031;DHT22;56083;48.774;8.942;2023-03-24T09:47:30;13.80;99.90
69031;DHT22;56083;48.774;8.942;2023-03-24T09:50:11;14.50;99.90
69031;DHT22;56083;48.774;8.942;2023-03-24T09:52:42;15.00;99.90
69031;DHT22;56083;48.774;8.942;2023-03-24T09:55:16;15.10;99.90
69031;DHT22;56083;48.774;8.942;2023-03-24T09:57:45;15.20;99.90
69031;DHT22;56083;48.774;8.942;2023-03-24T10:00:28;15.70;99.90
69031;DHT22;56083;48.774;8.942;2023-03-24T10:03:19;16.60;99.90
69031;DHT22;56083;48.774;8.942;2023-03-24T10:05:59;16.90;99.90
69031;DHT22;56083;48.774;8.942;2023-03-24T10:08:35;16.80;99.90
69031;DHT22;56083;48.774;8.942;2023-03-24T10:16:47;18.40;99.90
69031;DHT22;56083;48.774;8.942;2023-03-24T10:24:44;18.50;99.90
69031;DHT22;56083;48.774;8.942;2023-03-24T10:27:28;17.70;99.90
69031;DHT22;56083;48.774;8.942;2023-03-24T10:30:11;17.10;99.90
69031;DHT22;56083;48.774;8.942;2023-03-24T10:32:40;16.10;99.90
69031;DHT22;56083;48.774;8.942;2023-03-24T10:35:15;15.60;99.90
69031;DHT22;56083;48.774;8.942;2023-03-24T10:37:43;15.60;99.90
69031;DHT22;56083;48.774;8.942;2023-03-24T10:40:23;15.70;99.90
69031;DHT22;56083;48.774;8.942;2023-03-24T10:42:51;15.90;99.90
69031;DHT22;56083;48.774;8.942;2023-03-24T10:45:31;15.60;99.90
69031;DHT22;56083;48.774;8.942;2023-03-24T10:47:59;15.50;99.90
69031;DHT22;56083;48.774;8.942;2023-03-24T10:50:27;15.70;99.90
69031;DHT22;56083;48.774;8.942;2023-03-24T10:52:53;15.90;99.90
69031;DHT22;56083;48.774;8.942;2023-03-24T10:55:22;15.70;99.90
69031;DHT22;56083;48.774;8.942;2023-03-24T10:57:51;15.50;99.90
69031;DHT22;56083;48.774;8.942;2023-03-24T11:00:29;15.50;99.90
69031;DHT22;56083;48.774;8.942;2023-03-24T11:03:10;15.80;99.90
69031;DHT22;56083;48.774;8.942;2023-03-24T11:05:37;16.50;99.90
69031;DHT22;56083;48.774;8.942;2023-03-24T11:10:42;16.90;99.90
69031;DHT22;56083;48.774;8.942;2023-03-24T11:13:25;16.60;99.90
69031;DHT22;56083;48.774;8.942;2023-03-24T11:16:04;16.30;99.90
69031;DHT22;56083;48.774;8.942;2023-03-24T11:18:31;16.30;99.90
69031;DHT22;56083;48.774;8.942;2023-03-24T11:21:05;16.20;99.90
69031;DHT22;56083;48.774;8.942;2023-03-24T11:23:37;16.10;99.90
69031;DHT22;56083;48.774;8.942;2023-03-24T11:26:07;15.80;99.90
69031;DHT22;56083;48.774;8.942;2023-03-24T11:29:11;15.70;99.90
69031;DHT22;56083;48.774;8.942;2023-03-24T11:31:38;15.80;99.90
69031;DHT22;56083;48.774;8.942;2023-03-24T11:36:41;15.00;99.90
69031;DHT22;56083;48.774;8.942;2023-03-24T11:39:15;14.80;99.90
69031;DHT22;56083;48.774;8.942;2023-03-24T11:42:02;14.70;99.90
69031;DHT22;56083;48.774;8.942;2023-03-24T11:47:19;14.60;99.90
69031;DHT22;56083;48.774;8.942;2023-03-24T11:57:59;14.50;99.90
69031;DHT22;56083;48.774;8.942;2023-03-24T12:00:39;14.40;99.90
69031;DHT22;56083;48.774;8.942;2023-03-24T12:03:17;14.40;99.90
69031;DHT22;56083;48.774;8.942;2023-03-24T12:14:50;14.50;99.90
69031;DHT22;56083;48.774;8.942;2023-03-24T12:17:23;14.50;99.90
69031;DHT22;56083;48.774;8.942;2023-03-24T12:19:54;14.40;99.90
69031;DHT22;56083;48.774;8.942;2023-03-24T12:54:53;15.30;99.90
69031;DHT22;56083;48.774;8.942;2023-03-24T12:57:33;15.40;99.90
69031;DHT22;56083;48.774;8.942;2023-03-24T13:02:50;15.70;99.90
69031;DHT22;56083;48.774;8.942;2023-03-24T13:05:25;15.50;99.90
69031;DHT22;56083;48.774;8.942;2023-03-24T13:07:56;15.40;99.90
69031;DHT22;56083;48.774;8.942;2023-03-24T13:10:26;15.20;99.90
69031;DHT22;56083;48.774;8.942;2023-03-24T13:13:02;14.90;99.90
69031;DHT22;56083;48.774;8.942;2023-03-24T13:15:52;14.60;99.90
69031;DHT22;56083;48.774;8.942;2023-03-24T13:23:51;14.00;99.90
69031;DHT22;56083;48.774;8.942;2023-03-24T13:34:30;13.70;99.90
69031;DHT22;56083;48.774;8.942;2023-03-24T13:37:13;13.70;99.90
69031;DHT22;56083;48.774;8.942;2023-03-24T13:39:42;13.70;99.90
69031;DHT22;56083;48.774;8.942;2023-03-24T13:42:32;13.70;99.90
69031;DHT22;56083;48.774;8.942;2023-03-24T13:44:59;13.70;99.90
69031;DHT22;56083;48.774;8.942;2023-03-24T13:47:25;13.80;99.90
69031;DHT22;56083;48.774;8.942;2023-03-24T13:49:58;13.80;99.90
69031;DHT22;56083;48.774;8.942;2023-03-24T13:52:35;13.80;99.90
69031;DHT22;56083;48.774;8.942;2023-03-24T13:55:08;13.80;99.90
69031;DHT22;56083;48.774;8.942;2023-03-24T13:57:38;13.90;99.90
69031;DHT22;56083;48.774;8.942;2023-03-24T14:05:30;14.20;99.90
69031;DHT22;56083;48.774;8.942;2023-03-24T14:10:27;14.10;99.90
69031;DHT22;56083;48.774;8.942;2023-03-24T14:13:02;13.80;99.90
69031;DHT22;56083;48.774;8.942;2023-03-24T14:15:54;13.50;99.90
69031;DHT22;56083;48.774;8.942;2023-03-24T14:23:37;12.70;99.90
69031;DHT22;56083;48.774;8.942;2023-03-24T14:26:07;12.40;99.90
69031;DHT22;56083;48.774;8.942;2023-03-24T14:28:37;12.10;99.90
69031;DHT22;56083;48.774;8.942;2023-03-24T14:31:19;12.00;99.90
69031;DHT22;56083;48.774;8.942;2023-03-24T14:36:28;11.90;99.90
69031;DHT22;56083;48.774;8.942;2023-03-24T14:38:56;11.90;99.90
69031;DHT22;56083;48.774;8.942;2023-03-24T14:41:30;11.90;99.90
69031;DHT22;56083;48.774;8.942;2023-03-24T14:44:03;11.80;99.90
69031;DHT22;56083;48.774;8.942;2023-03-24T14:49:25;11.60;99.90
69031;DHT22;56083;48.774;8.942;2023-03-24T14:52:08;11.50;99.90
69031;DHT22;56083;48.774;8.942;2023-03-24T14:54:40;11.40;99.90
69031;DHT22;56083;48.774;8.942;2023-03-24T14:57:27;11.10;99.90
69031;DHT22;56083;48.774;8.942;2023-03-24T15:02:57;10.80;99.90
69031;DHT22;56083;48.774;8.942;2023-03-24T15:05:30;10.70;99.90
69031;DHT22;56083;48.774;8.942;2023-03-24T15:08:12;10.70;99.90
69031;DHT22;56083;48.774;8.942;2023-03-24T15:10:54;10.70;99.90
69031;DHT22;56083;48.774;8.942;2023-03-24T15:15:54;10.60;99.90
69031;DHT22;56083;48.774;8.942;2023-03-24T15:18:20;10.60;99.90
69031;DHT22;56083;48.774;8.942;2023-03-24T15:20:50;10.60;99.90
69031;DHT22;56083;48.774;8.942;2023-03-24T15:23:24;10.70;99.90
69031;DHT22;56083;48.774;8.942;2023-03-24T15:25:51;10.70;99.90
69031;DHT22;56083;48.774;8.942;2023-03-24T15:28:26;10.70;99.90
69031;DHT22;56083;48.774;8.942;2023-03-24T15:30:54;10.80;99.90
69031;DHT22;56083;48.774;8.942;2023-03-24T15:33:21;10.80;99.90
69031;DHT22;56083;48.774;8.942;2023-03-24T15:35:54;10.90;99.90
69031;DHT22;56083;48.774;8.942;2023-03-24T15:38:30;11.00;99.90
69031;DHT22;56083;48.774;8.942;2023-03-24T15:41:08;11.10;99.90
69031;DHT22;56083;48.774;8.942;2023-03-24T15:43:42;11.20;99.90
69031;DHT22;56083;48.774;8.942;2023-03-24T15:46:22;11.20;99.90
69031;DHT22;56083;48.774;8.942;2023-03-24T15:48:48;11.30;99.90
69031;DHT22;56083;48.774;8.942;2023-03-24T15:51:15;11.30;99.90
69031;DHT22;56083;48.774;8.942;2023-03-24T15:53:44;11.30;99.90
69031;DHT22;56083;48.774;8.942;2023-03-24T15:56:14;11.30;99.90
69031;DHT22;56083;48.774;8.942;2023-03-24T15:59:06;11.50;99.90
69031;DHT22;56083;48.774;8.942;2023-03-24T16:01:31;11.90;99.90
69031;DHT22;56083;48.774;8.942;2023-03-24T16:04:19;12.50;99.90
69031;DHT22;56083;48.774;8.942;2023-03-24T16:06:50;13.00;99.90
69031;DHT22;56083;48.774;8.942;2023-03-24T16:09:19;13.60;99.90
69031;DHT22;56083;48.774;8.942;2023-03-24T16:11:46;14.40;99.90
69031;DHT22;56083;48.774;8.942;2023-03-24T16:14:24;14.40;99.90
69031;DHT22;56083;48.774;8.942;2023-03-24T16:16:55;14.10;99.90
69031;DHT22;56083;48.774;8.942;2023-03-24T16:19:21;13.80;99.90
69031;DHT22;56083;48.774;8.942;2023-03-24T16:21:47;13.40;99.90
69031;DHT22;56083;48.774;8.942;2023-03-24T16:24:13;13.10;99.90
69031;DHT22;56083;48.774;8.942;2023-03-24T16:26:38;12.80;99.90
69031;DHT22;56083;48.774;8.942;2023-03-24T16:29:16;12.60;99.90
69031;DHT22;56083;48.774;8.942;2023-03-24T16:31:43;12.40;99.90
69031;DHT22;56083;48.774;8.942;2023-03-24T16:34:09;12.40;99.90
69031;DHT22;56083;48.774;8.942;2023-03-24T16:36:35;12.40;99.90
69031;DHT22;56083;48.774;8.942;2023-03-24T16:39:01;12.90;99.90
69031;DHT22;56083;48.774;8.942;2023-03-24T16:41:27;13.70;99.90
69031;DHT22;56083;48.774;8.942;2023-03-24T16:43:53;14.30;99.90
69031;DHT22;56083;48.774;8.942;2023-03-24T16:48:51;14.20;99.90
69031;DHT22;56083;48.774;8.942;2023-03-24T16:51:17;14.30;99.90
69031;DHT22;56083;48.774;8.942;2023-03-24T16:53:44;14.00;99.90
69031;DHT22;56083;48.774;8.942;2023-03-24T16:56:12;13.60;99.90
69031;DHT22;56083;48.774;8.942;2023-03-24T16:58:38;13.40;99.90
69031;DHT22;56083;48.774;8.942;2023-03-24T17:03:59;12.90;99.90
69031;DHT22;56083;48.774;8.942;2023-03-24T17:06:25;12.40;99.90
69031;DHT22;56083;48.774;8.942;2023-03-24T17:08:51;12.10;99.90
69031;DHT22;56083;48.774;8.942;2023-03-24T17:11:20;11.80;99.90
69031;DHT22;56083;48.774;8.942;2023-03-24T17:13:48;11.60;99.90
69031;DHT22;56083;48.774;8.942;2023-03-24T17:16:14;11.40;99.90
69031;DHT22;56083;48.774;8.942;2023-03-24T17:18:40;11.30;99.90
69031;DHT22;56083;48.774;8.942;2023-03-24T17:21:12;11.20;99.90
69031;DHT22;56083;48.774;8.942;2023-03-24T17:23:38;11.20;99.90
69031;DHT22;56083;48.774;8.942;2023-03-24T17:26:04;11.10;99.90
69031;DHT22;56083;48.774;8.942;2023-03-24T17:28:30;11.10;99.90
69031;DHT22;56083;48.774;8.942;2023-03-24T17:30:56;11.00;99.90
69031;DHT22;56083;48.774;8.942;2023-03-24T17:33:21;11.00;99.90
69031;DHT22;56083;48.774;8.942;2023-03-24T17:35:47;10.90;99.90
69031;DHT22;56083;48.774;8.942;2023-03-24T17:38:16;10.80;99.90
69031;DHT22;56083;48.774;8.942;2023-03-24T17:40:42;10.70;99.90
69031;DHT22;56083;48.774;8.942;2023-03-24T17:43:08;10.60;99.90
69031;DHT22;56083;48.774;8.942;2023-03-24T17:45:33;10.50;99.90
69031;DHT22;56083;48.774;8.942;2023-03-24T17:47:59;10.50;99.90
69031;DHT22;56083;48.774;8.942;2023-03-24T17:50:25;10.40;99.90
69031;DHT22;56083;48.774;8.942;2023-03-24T17:52:52;10.40;99.90
69031;DHT22;56083;48.774;8.942;2023-03-24T17:55:17;10.30;99.90
69031;DHT22;56083;48.774;8.942;2023-03-24T17:57:43;10.20;99.90
69031;DHT22;56083;48.774;8.942;2023-03-24T18:00:10;10.20;99.90
69031;DHT22;56083;48.774;8.942;2023-03-24T18:02:38;10.10;99.90
69031;DHT22;56083;48.774;8.942;2023-03-24T18:05:04;10.10;99.90
69031;DHT22;56083;48.774;8.942;2023-03-24T18:07:30;10.00;99.90
69031;DHT22;56083;48.774;8.942;2023-03-24T18:09:57;10.00;99.90
69031;DHT22;56083;48.774;8.942;2023-03-24T18:12:23;9.90;99.90
69031;DHT22;56083;48.774;8.942;2023-03-24T18:14:49;9.80;99.90
69031;DHT22;56083;48.774;8.942;2023-03-24T18:17:15;9.80;99.90
69031;DHT22;56083;48.774;8.942;2023-03-24T18:19:41;9.80;99.90
69031;DHT22;56083;48.774;8.942;2023-03-24T18:22:07;9.80;99.90
69031;DHT22;56083;48.774;8.942;2023-03-24T18:24:33;9.70;99.90
69031;DHT22;56083;48.774;8.942;2023-03-24T18:26:59;9.70;99.90
69031;DHT22;56083;48.774;8.942;2023-03-24T18:29:25;9.70;99.90
69031;DHT22;56083;48.774;8.942;2023-03-24T18:31:51;9.60;99.90
69031;DHT22;56083;48.774;8.942;2023-03-24T18:34:16;9.60;99.90